C. Angelo — WCZ5866 — position and weather

sailwx.info

Track history (hours):
 
Tides and Currents Weather Stations Pressure Air Temp Water Temp Dewpoint Dewpoint Depression Visibility Wind Speed Wind Dir Waves Ship Positions

C. Angelo

Owner: G T 110 INC, NEW HAVEN, CT. More information available from US FCC via Universal Licensing System and Coast Guard Vessel Documentation Center.

Last reported at 2017-Feb-16 17:33 UTC. Time now 2017-Feb-27 04:46 UTC.
Position N 40°52' W 073°45'.
Warning: this ship's position is 10 days out of date.

Length 30 m; draft 4 m.

Type: Tug. MMSI: 366988420.

Date/timePositionNaut miles runAvg speedWind from/ knotsBaromVisibWave heightAir tempDewpointWater temp
2017-Feb-16 17:33N 40°52' W 073°45'9 9.3
2017-Feb-16 16:33N 40°47' W 073°56'1110.6
2017-Feb-16 15:34N 40°39' W 074°05'1 1.3
2017-Feb-16 14:33N 40°39' W 074°07'0 0.0
2017-Feb-16 13:33N 40°39' W 074°07'0 0.0
2017-Feb-16 12:33N 40°39' W 074°07'0 0.0
2017-Feb-16 11:33N 40°39' W 074°07'0 0.0
2017-Feb-16 10:31N 40°39' W 074°07'0 0.0
2017-Feb-16 09:28N 40°39' W 074°07'0 0.0
2017-Feb-16 08:25N 40°39' W 074°07'4 5.0
2017-Feb-16 07:33N 40°41' W 074°02'7 6.7
2017-Feb-16 06:33N 40°46' W 073°57'8 7.5
2017-Feb-16 05:31N 40°49' W 073°47'6 0.3
2017-Feb-15 06:32N 40°54' W 073°42'10 9.9
2017-Feb-15 05:33N 40°48' W 073°52'1010.2
2017-Feb-15 04:34N 40°41' W 074°01'7 6.9
2017-Feb-15 03:34N 40°39' W 074°10'0 0.3
2017-Feb-15 02:34N 40°39' W 074°10'5 5.4
2017-Feb-15 01:34N 40°39' W 074°03'2 1.9
2017-Feb-15 00:34N 40°41' W 074°04'0 0.0
2017-Feb-14 23:34N 40°41' W 074°04'0 0.0
2017-Feb-14 22:34N 40°41' W 074°04'5 4.5
2017-Feb-14 21:33N 40°39' W 074°10'2 1.7
2017-Feb-14 20:33N 40°38' W 074°12'0 0.0
2017-Feb-14 19:33N 40°38' W 074°12'0 0.0
2017-Feb-14 18:33N 40°38' W 074°12'0 0.0
2017-Feb-14 17:33N 40°38' W 074°12'6 6.1
2017-Feb-14 16:34N 40°40' W 074°04'1 1.3
2017-Feb-14 15:33N 40°41' W 074°04'0 0.0
2017-Feb-14 14:33N 40°41' W 074°04'0 0.0
2017-Feb-14 13:33N 40°41' W 074°04'0 0.0
2017-Feb-14 12:33N 40°41' W 074°04'0 0.0
2017-Feb-14 11:33N 40°41' W 074°04'0 0.0
2017-Feb-14 10:33N 40°41' W 074°04'0 0.0
2017-Feb-14 09:33N 40°41' W 074°04'0 0.0
2017-Feb-14 08:33N 40°41' W 074°04'0 0.0
2017-Feb-14 07:33N 40°41' W 074°04'0 0.0
2017-Feb-14 06:33N 40°41' W 074°04'0 0.0
2017-Feb-14 05:34N 40°41' W 074°04'0 0.0
2017-Feb-14 04:33N 40°41' W 074°04'0 0.0
2017-Feb-14 03:33N 40°41' W 074°04'0 0.0
2017-Feb-14 02:33N 40°41' W 074°04'0 0.0
2017-Feb-14 01:33N 40°41' W 074°04'0 0.0
2017-Feb-14 00:34N 40°41' W 074°04'0 0.0
2017-Feb-13 23:34N 40°41' W 074°04'0 0.0
2017-Feb-13 22:33N 40°41' W 074°04'0 0.0
2017-Feb-13 21:33N 40°41' W 074°04'0 0.0
2017-Feb-13 20:33N 40°41' W 074°04'0 0.0
2017-Feb-13 19:33N 40°41' W 074°04'0 0.0
2017-Feb-13 18:33N 40°41' W 074°04'0 0.0
2017-Feb-13 17:33N 40°41' W 074°04'0 0.0
2017-Feb-13 16:34N 40°41' W 074°04'0 0.0
2017-Feb-13 15:34N 40°41' W 074°04'0 0.0
2017-Feb-13 14:34N 40°41' W 074°04'0 0.0
2017-Feb-13 13:34N 40°41' W 074°04'0 0.0
2017-Feb-13 12:34N 40°41' W 074°04'0 0.0
2017-Feb-13 11:34N 40°41' W 074°04'0 0.0
2017-Feb-13 10:34N 40°41' W 074°04'0 0.0
2017-Feb-13 09:34N 40°41' W 074°04'0 0.0
2017-Feb-13 08:34N 40°41' W 074°04'0 0.0
2017-Feb-13 07:33N 40°41' W 074°04'0 0.0
2017-Feb-13 06:34N 40°41' W 074°04'0 0.0
2017-Feb-13 05:34N 40°41' W 074°04'0 0.0
2017-Feb-13 04:33N 40°41' W 074°04'0 0.0
2017-Feb-13 03:34N 40°41' W 074°04'0 0.0
2017-Feb-13 02:34N 40°41' W 074°04'0 0.0
2017-Feb-13 01:34N 40°41' W 074°04'0 0.0
2017-Feb-13 00:34N 40°41' W 074°04'0 0.0
2017-Feb-12 23:34N 40°41' W 074°04'1 1.4
2017-Feb-12 22:34N 40°41' W 074°03'6 6.2
2017-Feb-12 21:34N 40°45' W 073°58'8 7.6
2017-Feb-12 20:33N 40°48' W 073°48'7 6.5
2017-Feb-12 19:33N 40°53' W 073°43'  
Track history (hours):
 
Tides and Currents Weather Stations Pressure Air Temp Water Temp Dewpoint Dewpoint Depression Visibility Wind Speed Wind Dir Waves Ship Positions

C. Angelo

Owner: G T 110 INC, NEW HAVEN, CT. More information available from US FCC via Universal Licensing System and Coast Guard Vessel Documentation Center.

Last reported at 2017-Feb-16 17:33 UTC. Time now 2017-Feb-27 04:46 UTC.
Position N 40°52' W 073°45'.
Warning: this ship's position is 10 days out of date.

Length 30 m; draft 4 m.

Type: Tug. MMSI: 366988420.

Date/timePositionNaut miles runAvg speedWind from/ knotsBaromVisibWave heightAir tempDewpointWater temp
2017-Feb-16 17:33N 40°52' W 073°45'9 9.3
2017-Feb-16 16:33N 40°47' W 073°56'1110.6
2017-Feb-16 15:34N 40°39' W 074°05'1 1.3
2017-Feb-16 14:33N 40°39' W 074°07'0 0.0
2017-Feb-16 13:33N 40°39' W 074°07'0 0.0
2017-Feb-16 12:33N 40°39' W 074°07'0 0.0
2017-Feb-16 11:33N 40°39' W 074°07'0 0.0
2017-Feb-16 10:31N 40°39' W 074°07'0 0.0
2017-Feb-16 09:28N 40°39' W 074°07'0 0.0
2017-Feb-16 08:25N 40°39' W 074°07'4 5.0
2017-Feb-16 07:33N 40°41' W 074°02'7 6.7
2017-Feb-16 06:33N 40°46' W 073°57'8 7.5
2017-Feb-16 05:31N 40°49' W 073°47'6 0.3
2017-Feb-15 06:32N 40°54' W 073°42'10 9.9
2017-Feb-15 05:33N 40°48' W 073°52'1010.2
2017-Feb-15 04:34N 40°41' W 074°01'7 6.9
2017-Feb-15 03:34N 40°39' W 074°10'0 0.3
2017-Feb-15 02:34N 40°39' W 074°10'5 5.4
2017-Feb-15 01:34N 40°39' W 074°03'2 1.9
2017-Feb-15 00:34N 40°41' W 074°04'0 0.0
2017-Feb-14 23:34N 40°41' W 074°04'0 0.0
2017-Feb-14 22:34N 40°41' W 074°04'5 4.5
2017-Feb-14 21:33N 40°39' W 074°10'2 1.7
2017-Feb-14 20:33N 40°38' W 074°12'0 0.0
2017-Feb-14 19:33N 40°38' W 074°12'0 0.0
2017-Feb-14 18:33N 40°38' W 074°12'0 0.0
2017-Feb-14 17:33N 40°38' W 074°12'6 6.1
2017-Feb-14 16:34N 40°40' W 074°04'1 1.3
2017-Feb-14 15:33N 40°41' W 074°04'0 0.0
2017-Feb-14 14:33N 40°41' W 074°04'0 0.0
2017-Feb-14 13:33N 40°41' W 074°04'0 0.0
2017-Feb-14 12:33N 40°41' W 074°04'0 0.0
2017-Feb-14 11:33N 40°41' W 074°04'0 0.0
2017-Feb-14 10:33N 40°41' W 074°04'0 0.0
2017-Feb-14 09:33N 40°41' W 074°04'0 0.0
2017-Feb-14 08:33N 40°41' W 074°04'0 0.0
2017-Feb-14 07:33N 40°41' W 074°04'0 0.0
2017-Feb-14 06:33N 40°41' W 074°04'0 0.0
2017-Feb-14 05:34N 40°41' W 074°04'0 0.0
2017-Feb-14 04:33N 40°41' W 074°04'0 0.0
2017-Feb-14 03:33N 40°41' W 074°04'0 0.0
2017-Feb-14 02:33N 40°41' W 074°04'0 0.0
2017-Feb-14 01:33N 40°41' W 074°04'0 0.0
2017-Feb-14 00:34N 40°41' W 074°04'0 0.0
2017-Feb-13 23:34N 40°41' W 074°04'0 0.0
2017-Feb-13 22:33N 40°41' W 074°04'0 0.0
2017-Feb-13 21:33N 40°41' W 074°04'0 0.0
2017-Feb-13 20:33N 40°41' W 074°04'0 0.0
2017-Feb-13 19:33N 40°41' W 074°04'0 0.0
2017-Feb-13 18:33N 40°41' W 074°04'0 0.0
2017-Feb-13 17:33N 40°41' W 074°04'0 0.0
2017-Feb-13 16:34N 40°41' W 074°04'0 0.0
2017-Feb-13 15:34N 40°41' W 074°04'0 0.0
2017-Feb-13 14:34N 40°41' W 074°04'0 0.0
2017-Feb-13 13:34N 40°41' W 074°04'0 0.0
2017-Feb-13 12:34N 40°41' W 074°04'0 0.0
2017-Feb-13 11:34N 40°41' W 074°04'0 0.0
2017-Feb-13 10:34N 40°41' W 074°04'0 0.0
2017-Feb-13 09:34N 40°41' W 074°04'0 0.0
2017-Feb-13 08:34N 40°41' W 074°04'0 0.0
2017-Feb-13 07:33N 40°41' W 074°04'0 0.0
2017-Feb-13 06:34N 40°41' W 074°04'0 0.0
2017-Feb-13 05:34N 40°41' W 074°04'0 0.0
2017-Feb-13 04:33N 40°41' W 074°04'0 0.0
2017-Feb-13 03:34N 40°41' W 074°04'0 0.0
2017-Feb-13 02:34N 40°41' W 074°04'0 0.0
2017-Feb-13 01:34N 40°41' W 074°04'0 0.0
2017-Feb-13 00:34N 40°41' W 074°04'0 0.0
2017-Feb-12 23:34N 40°41' W 074°04'1 1.4
2017-Feb-12 22:34N 40°41' W 074°03'6 6.2
2017-Feb-12 21:34N 40°45' W 073°58'8 7.6
2017-Feb-12 20:33N 40°48' W 073°48'7 6.5
2017-Feb-12 19:33N 40°53' W 073°43'  

Dump ship's entire track history